sensor_id;sensor_type;location;lat;lon;timestamp;P1;durP1;ratioP1;P2;durP2;ratioP2
81901;SDS011;71369;50.796;3.290;2023-09-18T00:01:24;8.15;;;3.25;;
81901;SDS011;71369;50.796;3.290;2023-09-18T00:03:50;7.43;;;3.35;;
81901;SDS011;71369;50.796;3.290;2023-09-18T00:06:16;4.38;;;2.53;;
81901;SDS011;71369;50.796;3.290;2023-09-18T00:08:42;6.97;;;3.22;;
81901;SDS011;71369;50.796;3.290;2023-09-18T00:11:07;6.47;;;3.38;;
81901;SDS011;71369;50.796;3.290;2023-09-18T00:13:34;6.20;;;3.10;;
81901;SDS011;71369;50.796;3.290;2023-09-18T00:16:00;4.65;;;3.30;;
81901;SDS011;71369;50.796;3.290;2023-09-18T00:18:26;5.05;;;3.10;;
81901;SDS011;71369;50.796;3.290;2023-09-18T00:20:52;7.05;;;3.10;;
81901;SDS011;71369;50.796;3.290;2023-09-18T00:23:17;6.95;;;2.97;;
81901;SDS011;71369;50.796;3.290;2023-09-18T00:25:46;8.10;;;3.85;;
81901;SDS011;71369;50.796;3.290;2023-09-18T00:28:12;5.50;;;3.65;;
81901;SDS011;71369;50.796;3.290;2023-09-18T00:30:38;5.22;;;3.22;;
81901;SDS011;71369;50.796;3.290;2023-09-18T00:33:12;4.05;;;2.92;;
81901;SDS011;71369;50.796;3.290;2023-09-18T00:35:38;7.65;;;3.95;;
81901;SDS011;71369;50.796;3.290;2023-09-18T00:38:04;5.13;;;3.10;;
81901;SDS011;71369;50.796;3.290;2023-09-18T00:40:32;5.03;;;3.08;;
81901;SDS011;71369;50.796;3.290;2023-09-18T00:42:58;7.00;;;3.45;;
81901;SDS011;71369;50.796;3.290;2023-09-18T00:45:24;9.25;;;4.13;;
81901;SDS011;71369;50.796;3.290;2023-09-18T00:47:49;5.20;;;3.80;;
81901;SDS011;71369;50.796;3.290;2023-09-18T00:50:15;7.72;;;3.58;;
81901;SDS011;71369;50.796;3.290;2023-09-18T00:52:41;9.02;;;3.60;;
81901;SDS011;71369;50.796;3.290;2023-09-18T00:55:08;5.78;;;3.80;;
81901;SDS011;71369;50.796;3.290;2023-09-18T00:57:34;10.60;;;3.50;;
81901;SDS011;71369;50.796;3.290;2023-09-18T01:00:01;6.57;;;3.28;;
81901;SDS011;71369;50.796;3.290;2023-09-18T01:02:29;11.88;;;3.97;;
81901;SDS011;71369;50.796;3.290;2023-09-18T01:04:55;7.50;;;3.45;;
81901;SDS011;71369;50.796;3.290;2023-09-18T01:07:21;6.82;;;3.28;;
81901;SDS011;71369;50.796;3.290;2023-09-18T01:09:47;7.38;;;3.80;;
81901;SDS011;71369;50.796;3.290;2023-09-18T01:12:21;7.35;;;3.80;;
81901;SDS011;71369;50.796;3.290;2023-09-18T01:17:35;8.90;;;3.40;;
81901;SDS011;71369;50.796;3.290;2023-09-18T01:20:03;5.45;;;3.35;;
81901;SDS011;71369;50.796;3.290;2023-09-18T01:22:31;6.10;;;3.70;;
81901;SDS011;71369;50.796;3.290;2023-09-18T01:24:57;6.72;;;3.67;;
81901;SDS011;71369;50.796;3.290;2023-09-18T01:27:23;9.02;;;3.45;;
81901;SDS011;71369;50.796;3.290;2023-09-18T01:29:49;6.15;;;3.20;;
81901;SDS011;71369;50.796;3.290;2023-09-18T01:32:18;4.88;;;3.45;;
81901;SDS011;71369;50.796;3.290;2023-09-18T01:34:50;7.32;;;3.50;;
81901;SDS011;71369;50.796;3.290;2023-09-18T01:37:19;6.07;;;3.20;;
81901;SDS011;71369;50.796;3.290;2023-09-18T01:39:47;4.90;;;3.22;;
81901;SDS011;71369;50.796;3.290;2023-09-18T01:42:17;4.80;;;3.03;;
81901;SDS011;71369;50.796;3.290;2023-09-18T01:44:44;5.07;;;2.67;;
81901;SDS011;71369;50.796;3.290;2023-09-18T01:47:11;6.00;;;2.63;;
81901;SDS011;71369;50.796;3.290;2023-09-18T01:49:41;4.75;;;3.13;;
81901;SDS011;71369;50.796;3.290;2023-09-18T01:52:08;4.78;;;2.50;;
81901;SDS011;71369;50.796;3.290;2023-09-18T01:54:35;4.82;;;2.38;;
81901;SDS011;71369;50.796;3.290;2023-09-18T01:57:01;4.28;;;2.88;;
81901;SDS011;71369;50.796;3.290;2023-09-18T01:59:28;7.85;;;3.28;;
81901;SDS011;71369;50.796;3.290;2023-09-18T02:01:54;4.60;;;3.05;;
81901;SDS011;71369;50.796;3.290;2023-09-18T02:04:20;4.95;;;2.95;;
81901;SDS011;71369;50.796;3.290;2023-09-18T02:06:47;4.78;;;2.97;;
81901;SDS011;71369;50.796;3.290;2023-09-18T02:09:15;4.03;;;2.80;;
81901;SDS011;71369;50.796;3.290;2023-09-18T02:11:42;7.97;;;3.10;;
81901;SDS011;71369;50.796;3.290;2023-09-18T02:14:09;5.47;;;3.05;;
81901;SDS011;71369;50.796;3.290;2023-09-18T02:16:36;4.50;;;2.42;;
81901;SDS011;71369;50.796;3.290;2023-09-18T02:19:06;4.10;;;2.58;;
81901;SDS011;71369;50.796;3.290;2023-09-18T02:21:36;4.63;;;3.00;;
81901;SDS011;71369;50.796;3.290;2023-09-18T02:24:02;4.68;;;2.58;;
81901;SDS011;71369;50.796;3.290;2023-09-18T02:26:29;3.95;;;2.25;;
81901;SDS011;71369;50.796;3.290;2023-09-18T02:28:57;3.50;;;2.40;;
81901;SDS011;71369;50.796;3.290;2023-09-18T02:31:24;4.63;;;2.33;;
81901;SDS011;71369;50.796;3.290;2023-09-18T02:33:50;4.22;;;2.20;;
81901;SDS011;71369;50.796;3.290;2023-09-18T02:36:15;4.88;;;2.85;;
81901;SDS011;71369;50.796;3.290;2023-09-18T02:38:44;6.47;;;2.40;;
81901;SDS011;71369;50.796;3.290;2023-09-18T02:41:10;2.88;;;2.00;;
81901;SDS011;71369;50.796;3.290;2023-09-18T02:43:37;4.18;;;2.40;;
81901;SDS011;71369;50.796;3.290;2023-09-18T02:46:03;4.10;;;2.00;;
81901;SDS011;71369;50.796;3.290;2023-09-18T02:48:30;6.10;;;2.10;;
81901;SDS011;71369;50.796;3.290;2023-09-18T02:50:56;5.63;;;2.22;;
81901;SDS011;71369;50.796;3.290;2023-09-18T02:53:23;3.95;;;2.03;;
81901;SDS011;71369;50.796;3.290;2023-09-18T02:55:54;4.05;;;1.95;;
81901;SDS011;71369;50.796;3.290;2023-09-18T02:58:21;4.20;;;2.17;;
81901;SDS011;71369;50.796;3.290;2023-09-18T03:00:48;4.57;;;2.40;;
81901;SDS011;71369;50.796;3.290;2023-09-18T03:03:15;3.83;;;2.40;;
81901;SDS011;71369;50.796;3.290;2023-09-18T03:05:42;3.92;;;1.85;;
81901;SDS011;71369;50.796;3.290;2023-09-18T03:08:09;11.70;;;2.50;;
81901;SDS011;71369;50.796;3.290;2023-09-18T03:10:36;3.97;;;1.98;;
81901;SDS011;71369;50.796;3.290;2023-09-18T03:13:07;4.55;;;2.10;;
81901;SDS011;71369;50.796;3.290;2023-09-18T03:15:33;4.00;;;2.38;;
81901;SDS011;71369;50.796;3.290;2023-09-18T03:17:59;6.20;;;2.67;;
81901;SDS011;71369;50.796;3.290;2023-09-18T03:20:26;4.03;;;2.28;;
81901;SDS011;71369;50.796;3.290;2023-09-18T03:22:54;5.47;;;2.58;;
81901;SDS011;71369;50.796;3.290;2023-09-18T03:25:22;7.00;;;2.30;;
81901;SDS011;71369;50.796;3.290;2023-09-18T03:27:49;3.92;;;2.10;;
81901;SDS011;71369;50.796;3.290;2023-09-18T03:30:16;3.10;;;2.13;;
81901;SDS011;71369;50.796;3.290;2023-09-18T03:32:43;4.28;;;2.10;;
81901;SDS011;71369;50.796;3.290;2023-09-18T03:35:11;6.53;;;2.22;;
81901;SDS011;71369;50.796;3.290;2023-09-18T03:37:49;4.60;;;2.22;;
81901;SDS011;71369;50.796;3.290;2023-09-18T03:40:17;5.55;;;2.00;;
81901;SDS011;71369;50.796;3.290;2023-09-18T03:42:43;5.07;;;2.00;;
81901;SDS011;71369;50.796;3.290;2023-09-18T03:45:10;4.85;;;2.17;;
81901;SDS011;71369;50.796;3.290;2023-09-18T03:47:36;3.55;;;2.10;;
81901;SDS011;71369;50.796;3.290;2023-09-18T03:50:05;3.58;;;2.05;;
81901;SDS011;71369;50.796;3.290;2023-09-18T03:52:31;3.13;;;2.03;;
81901;SDS011;71369;50.796;3.290;2023-09-18T03:54:57;3.13;;;2.10;;
81901;SDS011;71369;50.796;3.290;2023-09-18T03:57:23;5.40;;;2.10;;
81901;SDS011;71369;50.796;3.290;2023-09-18T03:59:49;6.50;;;2.30;;
81901;SDS011;71369;50.796;3.290;2023-09-18T04:02:15;7.18;;;2.40;;
81901;SDS011;71369;50.796;3.290;2023-09-18T04:04:41;4.50;;;2.40;;
81901;SDS011;71369;50.796;3.290;2023-09-18T04:07:07;3.67;;;2.03;;
81901;SDS011;71369;50.796;3.290;2023-09-18T04:09:33;4.45;;;2.00;;
81901;SDS011;71369;50.796;3.290;2023-09-18T04:12:00;6.90;;;2.28;;
81901;SDS011;71369;50.796;3.290;2023-09-18T04:14:26;4.35;;;2.20;;
81901;SDS011;71369;50.796;3.290;2023-09-18T04:16:52;4.13;;;1.65;;
81901;SDS011;71369;50.796;3.290;2023-09-18T04:19:18;5.53;;;1.88;;
81901;SDS011;71369;50.796;3.290;2023-09-18T04:21:43;4.60;;;2.03;;
81901;SDS011;71369;50.796;3.290;2023-09-18T04:24:09;5.30;;;2.10;;
81901;SDS011;71369;50.796;3.290;2023-09-18T04:26:35;4.60;;;1.63;;
81901;SDS011;71369;50.796;3.290;2023-09-18T04:29:02;4.60;;;2.42;;
81901;SDS011;71369;50.796;3.290;2023-09-18T04:31:29;5.32;;;2.03;;
81901;SDS011;71369;50.796;3.290;2023-09-18T04:33:55;4.55;;;2.13;;
81901;SDS011;71369;50.796;3.290;2023-09-18T04:36:21;3.38;;;1.73;;
81901;SDS011;71369;50.796;3.290;2023-09-18T04:38:47;6.15;;;2.25;;
81901;SDS011;71369;50.796;3.290;2023-09-18T04:41:13;8.05;;;2.45;;
81901;SDS011;71369;50.796;3.290;2023-09-18T04:43:40;4.75;;;2.30;;
81901;SDS011;71369;50.796;3.290;2023-09-18T04:46:06;4.65;;;1.80;;
81901;SDS011;71369;50.796;3.290;2023-09-18T04:48:32;4.25;;;2.17;;
81901;SDS011;71369;50.796;3.290;2023-09-18T04:50:58;3.53;;;2.10;;
81901;SDS011;71369;50.796;3.290;2023-09-18T04:53:25;3.45;;;2.03;;
81901;SDS011;71369;50.796;3.290;2023-09-18T04:55:52;3.40;;;2.10;;
81901;SDS011;71369;50.796;3.290;2023-09-18T04:58:22;5.75;;;2.47;;
81901;SDS011;71369;50.796;3.290;2023-09-18T05:00:54;6.85;;;2.58;;
81901;SDS011;71369;50.796;3.290;2023-09-18T05:03:21;4.43;;;2.28;;
81901;SDS011;71369;50.796;3.290;2023-09-18T05:05:47;5.28;;;2.20;;
81901;SDS011;71369;50.796;3.290;2023-09-18T05:08:12;4.97;;;2.40;;
81901;SDS011;71369;50.796;3.290;2023-09-18T05:10:38;3.72;;;2.03;;
81901;SDS011;71369;50.796;3.290;2023-09-18T05:13:05;6.43;;;2.40;;
81901;SDS011;71369;50.796;3.290;2023-09-18T05:15:32;6.03;;;2.55;;
81901;SDS011;71369;50.796;3.290;2023-09-18T05:17:59;5.25;;;2.40;;
81901;SDS011;71369;50.796;3.290;2023-09-18T05:20:26;5.45;;;2.30;;
81901;SDS011;71369;50.796;3.290;2023-09-18T05:22:53;4.63;;;2.40;;
81901;SDS011;71369;50.796;3.290;2023-09-18T05:25:24;4.30;;;2.35;;
81901;SDS011;71369;50.796;3.290;2023-09-18T05:27:52;7.25;;;2.47;;
81901;SDS011;71369;50.796;3.290;2023-09-18T05:30:29;4.32;;;2.80;;
81901;SDS011;71369;50.796;3.290;2023-09-18T05:33:00;5.75;;;3.20;;
81901;SDS011;71369;50.796;3.290;2023-09-18T05:35:36;4.75;;;2.92;;
81901;SDS011;71369;50.796;3.290;2023-09-18T05:38:10;6.70;;;3.40;;
81901;SDS011;71369;50.796;3.290;2023-09-18T05:40:39;6.15;;;2.97;;
81901;SDS011;71369;50.796;3.290;2023-09-18T05:43:06;7.93;;;3.30;;
81901;SDS011;71369;50.796;3.290;2023-09-18T05:45:35;3.70;;;2.60;;
81901;SDS011;71369;50.796;3.290;2023-09-18T05:48:04;5.55;;;2.78;;
81901;SDS011;71369;50.796;3.290;2023-09-18T05:50:42;5.05;;;2.80;;
81901;SDS011;71369;50.796;3.290;2023-09-18T05:53:09;6.90;;;3.28;;
81901;SDS011;71369;50.796;3.290;2023-09-18T05:55:35;7.95;;;2.83;;
81901;SDS011;71369;50.796;3.290;2023-09-18T05:58:01;6.03;;;2.90;;
81901;SDS011;71369;50.796;3.290;2023-09-18T06:00:29;10.70;;;3.28;;
81901;SDS011;71369;50.796;3.290;2023-09-18T06:02:59;6.95;;;3.85;;
81901;SDS011;71369;50.796;3.290;2023-09-18T06:05:28;5.65;;;3.15;;
81901;SDS011;71369;50.796;3.290;2023-09-18T06:07:57;5.95;;;3.22;;
81901;SDS011;71369;50.796;3.290;2023-09-18T06:10:23;7.57;;;3.47;;
81901;SDS011;71369;50.796;3.290;2023-09-18T06:12:52;7.97;;;3.13;;
81901;SDS011;71369;50.796;3.290;2023-09-18T06:18:34;9.55;;;4.07;;
81901;SDS011;71369;50.796;3.290;2023-09-18T06:21:03;10.38;;;4.35;;
81901;SDS011;71369;50.796;3.290;2023-09-18T06:23:30;10.10;;;4.00;;
81901;SDS011;71369;50.796;3.290;2023-09-18T06:25:56;10.75;;;4.10;;
81901;SDS011;71369;50.796;3.290;2023-09-18T06:28:24;6.30;;;3.95;;
81901;SDS011;71369;50.796;3.290;2023-09-18T06:30:50;6.38;;;3.78;;
81901;SDS011;71369;50.796;3.290;2023-09-18T06:33:16;7.53;;;4.45;;
81901;SDS011;71369;50.796;3.290;2023-09-18T06:35:42;6.60;;;4.03;;
81901;SDS011;71369;50.796;3.290;2023-09-18T06:41:08;6.50;;;3.90;;
81901;SDS011;71369;50.796;3.290;2023-09-18T06:43:34;7.80;;;3.67;;
81901;SDS011;71369;50.796;3.290;2023-09-18T06:46:00;9.93;;;4.60;;
81901;SDS011;71369;50.796;3.290;2023-09-18T06:48:26;8.10;;;4.07;;
81901;SDS011;71369;50.796;3.290;2023-09-18T06:50:51;9.52;;;3.97;;
81901;SDS011;71369;50.796;3.290;2023-09-18T06:53:17;9.32;;;4.63;;
81901;SDS011;71369;50.796;3.290;2023-09-18T06:55:43;6.50;;;3.90;;
81901;SDS011;71369;50.796;3.290;2023-09-18T06:58:08;9.10;;;4.05;;
81901;SDS011;71369;50.796;3.290;2023-09-18T07:00:34;6.45;;;4.18;;
81901;SDS011;71369;50.796;3.290;2023-09-18T07:03:00;8.38;;;4.38;;
81901;SDS011;71369;50.796;3.290;2023-09-18T07:05:26;9.55;;;4.28;;
81901;SDS011;71369;50.796;3.290;2023-09-18T07:07:54;6.53;;;3.65;;
81901;SDS011;71369;50.796;3.290;2023-09-18T07:10:22;6.88;;;3.90;;
81901;SDS011;71369;50.796;3.290;2023-09-18T07:12:48;6.10;;;3.90;;
81901;SDS011;71369;50.796;3.290;2023-09-18T07:15:13;7.50;;;3.40;;
81901;SDS011;71369;50.796;3.290;2023-09-18T07:17:39;8.02;;;3.80;;
81901;SDS011;71369;50.796;3.290;2023-09-18T07:20:05;6.30;;;3.38;;
81901;SDS011;71369;50.796;3.290;2023-09-18T07:22:40;5.50;;;3.70;;
81901;SDS011;71369;50.796;3.290;2023-09-18T07:25:10;5.15;;;3.35;;
81901;SDS011;71369;50.796;3.290;2023-09-18T07:27:36;8.98;;;3.65;;
81901;SDS011;71369;50.796;3.290;2023-09-18T07:30:04;8.02;;;3.67;;
81901;SDS011;71369;50.796;3.290;2023-09-18T07:32:30;7.78;;;3.83;;
81901;SDS011;71369;50.796;3.290;2023-09-18T07:34:57;10.68;;;4.32;;
81901;SDS011;71369;50.796;3.290;2023-09-18T07:37:23;8.88;;;3.85;;
81901;SDS011;71369;50.796;3.290;2023-09-18T07:39:49;8.07;;;4.20;;
81901;SDS011;71369;50.796;3.290;2023-09-18T07:42:15;8.13;;;3.90;;
81901;SDS011;71369;50.796;3.290;2023-09-18T07:44:41;12.48;;;4.38;;
81901;SDS011;71369;50.796;3.290;2023-09-18T07:47:07;8.45;;;4.60;;
81901;SDS011;71369;50.796;3.290;2023-09-18T07:49:33;5.72;;;3.80;;
81901;SDS011;71369;50.796;3.290;2023-09-18T07:51:59;8.95;;;4.60;;
81901;SDS011;71369;50.796;3.290;2023-09-18T07:54:24;12.93;;;4.50;;
81901;SDS011;71369;50.796;3.290;2023-09-18T07:56:50;9.25;;;4.82;;
81901;SDS011;71369;50.796;3.290;2023-09-18T07:59:16;10.25;;;4.57;;
81901;SDS011;71369;50.796;3.290;2023-09-18T08:01:42;12.05;;;4.40;;
81901;SDS011;71369;50.796;3.290;2023-09-18T08:04:08;7.80;;;4.45;;
81901;SDS011;71369;50.796;3.290;2023-09-18T08:06:34;7.25;;;4.15;;
81901;SDS011;71369;50.796;3.290;2023-09-18T08:09:00;8.60;;;4.32;;
81901;SDS011;71369;50.796;3.290;2023-09-18T08:11:26;11.23;;;4.40;;
81901;SDS011;71369;50.796;3.290;2023-09-18T08:13:52;7.03;;;4.15;;
81901;SDS011;71369;50.796;3.290;2023-09-18T08:16:17;4.93;;;3.58;;
81901;SDS011;71369;50.796;3.290;2023-09-18T08:18:44;5.82;;;3.80;;
81901;SDS011;71369;50.796;3.290;2023-09-18T08:21:10;10.02;;;3.90;;
81901;SDS011;71369;50.796;3.290;2023-09-18T08:23:38;9.02;;;3.72;;
81901;SDS011;71369;50.796;3.290;2023-09-18T08:26:04;8.23;;;3.65;;
81901;SDS011;71369;50.796;3.290;2023-09-18T08:28:30;5.30;;;3.20;;
81901;SDS011;71369;50.796;3.290;2023-09-18T08:30:56;9.55;;;4.47;;
81901;SDS011;71369;50.796;3.290;2023-09-18T08:33:23;7.10;;;3.72;;
81901;SDS011;71369;50.796;3.290;2023-09-18T08:35:49;7.68;;;3.97;;
81901;SDS011;71369;50.796;3.290;2023-09-18T08:38:15;10.52;;;3.97;;
81901;SDS011;71369;50.796;3.290;2023-09-18T08:40:41;7.47;;;4.07;;
81901;SDS011;71369;50.796;3.290;2023-09-18T08:43:10;7.15;;;3.75;;
81901;SDS011;71369;50.796;3.290;2023-09-18T08:45:44;10.80;;;4.10;;
81901;SDS011;71369;50.796;3.290;2023-09-18T08:48:16;12.40;;;4.32;;
81901;SDS011;71369;50.796;3.290;2023-09-18T08:50:42;8.98;;;4.38;;
81901;SDS011;71369;50.796;3.290;2023-09-18T08:53:10;10.68;;;4.63;;
81901;SDS011;71369;50.796;3.290;2023-09-18T08:55:36;6.65;;;4.15;;
81901;SDS011;71369;50.796;3.290;2023-09-18T08:58:01;11.60;;;4.82;;
81901;SDS011;71369;50.796;3.290;2023-09-18T09:00:28;10.25;;;4.50;;
81901;SDS011;71369;50.796;3.290;2023-09-18T09:02:54;9.65;;;4.07;;
81901;SDS011;71369;50.796;3.290;2023-09-18T09:05:23;9.20;;;4.28;;
81901;SDS011;71369;50.796;3.290;2023-09-18T09:07:49;9.70;;;4.32;;
81901;SDS011;71369;50.796;3.290;2023-09-18T09:10:16;9.30;;;4.50;;
81901;SDS011;71369;50.796;3.290;2023-09-18T09:12:58;8.60;;;4.20;;
81901;SDS011;71369;50.796;3.290;2023-09-18T09:15:29;9.77;;;4.78;;
81901;SDS011;71369;50.796;3.290;2023-09-18T09:18:07;11.93;;;4.72;;
81901;SDS011;71369;50.796;3.290;2023-09-18T09:20:36;7.57;;;4.40;;
81901;SDS011;71369;50.796;3.290;2023-09-18T09:23:02;10.60;;;4.15;;
81901;SDS011;71369;50.796;3.290;2023-09-18T09:25:30;8.07;;;4.05;;
81901;SDS011;71369;50.796;3.290;2023-09-18T09:28:00;7.63;;;3.53;;
81901;SDS011;71369;50.796;3.290;2023-09-18T09:30:31;6.03;;;3.47;;
81901;SDS011;71369;50.796;3.290;2023-09-18T09:32:58;5.15;;;3.10;;
81901;SDS011;71369;50.796;3.290;2023-09-18T09:35:28;17.02;;;3.83;;
81901;SDS011;71369;50.796;3.290;2023-09-18T09:37:59;11.35;;;3.78;;
81901;SDS011;71369;50.796;3.290;2023-09-18T09:40:27;6.75;;;3.15;;
81901;SDS011;71369;50.796;3.290;2023-09-18T09:42:55;6.22;;;3.20;;
81901;SDS011;71369;50.796;3.290;2023-09-18T09:45:29;9.05;;;3.28;;
81901;SDS011;71369;50.796;3.290;2023-09-18T09:48:05;7.60;;;2.85;;
81901;SDS011;71369;50.796;3.290;2023-09-18T09:50:32;6.55;;;3.00;;
81901;SDS011;71369;50.796;3.290;2023-09-18T09:52:59;5.60;;;2.63;;
81901;SDS011;71369;50.796;3.290;2023-09-18T09:55:25;5.95;;;3.10;;
81901;SDS011;71369;50.796;3.290;2023-09-18T09:57:59;4.47;;;2.60;;
81901;SDS011;71369;50.796;3.290;2023-09-18T10:00:41;4.25;;;2.80;;
81901;SDS011;71369;50.796;3.290;2023-09-18T10:03:16;4.57;;;2.38;;
81901;SDS011;71369;50.796;3.290;2023-09-18T10:05:45;5.28;;;2.83;;
81901;SDS011;71369;50.796;3.290;2023-09-18T10:08:12;6.00;;;2.72;;
81901;SDS011;71369;50.796;3.290;2023-09-18T10:10:43;7.25;;;2.83;;
81901;SDS011;71369;50.796;3.290;2023-09-18T10:13:15;6.30;;;2.60;;
81901;SDS011;71369;50.796;3.290;2023-09-18T10:15:51;6.20;;;2.40;;
81901;SDS011;71369;50.796;3.290;2023-09-18T10:18:32;6.07;;;2.47;;
81901;SDS011;71369;50.796;3.290;2023-09-18T10:23:38;4.38;;;2.03;;
81901;SDS011;71369;50.796;3.290;2023-09-18T10:26:26;4.32;;;2.30;;
81901;SDS011;71369;50.796;3.290;2023-09-18T10:28:56;4.57;;;2.15;;
81901;SDS011;71369;50.796;3.290;2023-09-18T10:31:28;5.30;;;2.50;;
81901;SDS011;71369;50.796;3.290;2023-09-18T10:33:55;7.55;;;3.10;;
81901;SDS011;71369;50.796;3.290;2023-09-18T10:36:22;3.92;;;2.47;;
81901;SDS011;71369;50.796;3.290;2023-09-18T10:38:50;5.15;;;2.78;;
81901;SDS011;71369;50.796;3.290;2023-09-18T10:41:19;7.18;;;2.58;;
81901;SDS011;71369;50.796;3.290;2023-09-18T10:43:46;5.65;;;2.38;;
81901;SDS011;71369;50.796;3.290;2023-09-18T10:46:15;4.25;;;2.20;;
81901;SDS011;71369;50.796;3.290;2023-09-18T10:48:41;4.50;;;2.53;;
81901;SDS011;71369;50.796;3.290;2023-09-18T10:51:09;4.90;;;2.60;;
81901;SDS011;71369;50.796;3.290;2023-09-18T10:53:36;5.05;;;2.38;;
81901;SDS011;71369;50.796;3.290;2023-09-18T10:56:02;5.57;;;1.95;;
81901;SDS011;71369;50.796;3.290;2023-09-18T10:58:29;4.82;;;2.50;;
81901;SDS011;71369;50.796;3.290;2023-09-18T11:00:56;6.88;;;2.25;;
81901;SDS011;71369;50.796;3.290;2023-09-18T11:03:24;3.88;;;2.17;;
81901;SDS011;71369;50.796;3.290;2023-09-18T11:06:01;6.63;;;2.28;;
81901;SDS011;71369;50.796;3.290;2023-09-18T11:08:33;5.95;;;2.20;;
81901;SDS011;71369;50.796;3.290;2023-09-18T11:11:01;3.78;;;2.15;;
81901;SDS011;71369;50.796;3.290;2023-09-18T11:13:44;3.50;;;2.20;;
81901;SDS011;71369;50.796;3.290;2023-09-18T11:21:28;4.00;;;1.90;;
81901;SDS011;71369;50.796;3.290;2023-09-18T11:24:02;4.78;;;2.20;;
81901;SDS011;71369;50.796;3.290;2023-09-18T11:26:36;3.58;;;2.28;;
81901;SDS011;71369;50.796;3.290;2023-09-18T11:29:06;4.53;;;2.40;;
81901;SDS011;71369;50.796;3.290;2023-09-18T11:34:26;3.92;;;1.95;;
81901;SDS011;71369;50.796;3.290;2023-09-18T11:37:21;5.85;;;2.13;;
81901;SDS011;71369;50.796;3.290;2023-09-18T11:39:48;6.80;;;2.45;;
81901;SDS011;71369;50.796;3.290;2023-09-18T11:42:21;4.22;;;2.25;;
81901;SDS011;71369;50.796;3.290;2023-09-18T11:44:51;3.92;;;2.15;;
81901;SDS011;71369;50.796;3.290;2023-09-18T11:47:19;5.95;;;2.40;;
81901;SDS011;71369;50.796;3.290;2023-09-18T11:49:49;3.97;;;2.43;;
81901;SDS011;71369;50.796;3.290;2023-09-18T11:52:26;2.85;;;2.22;;
81901;SDS011;71369;50.796;3.290;2023-09-18T11:57:21;2.65;;;2.10;;
81901;SDS011;71369;50.796;3.290;2023-09-18T11:59:47;5.05;;;2.35;;
81901;SDS011;71369;50.796;3.290;2023-09-18T12:02:13;8.73;;;2.63;;
81901;SDS011;71369;50.796;3.290;2023-09-18T12:04:52;3.88;;;2.20;;
81901;SDS011;71369;50.796;3.290;2023-09-18T12:07:21;4.00;;;2.40;;
81901;SDS011;71369;50.796;3.290;2023-09-18T12:09:48;4.30;;;2.30;;
81901;SDS011;71369;50.796;3.290;2023-09-18T12:12:15;5.05;;;2.17;;
81901;SDS011;71369;50.796;3.290;2023-09-18T12:14:42;6.18;;;2.17;;
81901;SDS011;71369;50.796;3.290;2023-09-18T12:17:13;5.07;;;2.08;;
81901;SDS011;71369;50.796;3.290;2023-09-18T12:19:55;4.30;;;1.63;;
81901;SDS011;71369;50.796;3.290;2023-09-18T12:22:27;4.28;;;2.00;;
81901;SDS011;71369;50.796;3.290;2023-09-18T12:25:10;8.80;;;1.90;;
81901;SDS011;71369;50.796;3.290;2023-09-18T12:27:38;4.85;;;2.35;;
81901;SDS011;71369;50.796;3.290;2023-09-18T12:30:05;6.65;;;2.28;;
81901;SDS011;71369;50.796;3.290;2023-09-18T12:32:31;4.75;;;2.20;;
81901;SDS011;71369;50.796;3.290;2023-09-18T12:35:02;4.10;;;2.13;;
81901;SDS011;71369;50.796;3.290;2023-09-18T12:37:32;6.65;;;2.72;;
81901;SDS011;71369;50.796;3.290;2023-09-18T12:39:59;9.95;;;3.13;;
81901;SDS011;71369;50.796;3.290;2023-09-18T12:42:25;5.93;;;2.28;;
81901;SDS011;71369;50.796;3.290;2023-09-18T12:44:51;6.18;;;2.45;;
81901;SDS011;71369;50.796;3.290;2023-09-18T12:47:18;11.75;;;2.50;;
81901;SDS011;71369;50.796;3.290;2023-09-18T12:49:44;11.52;;;2.30;;
81901;SDS011;71369;50.796;3.290;2023-09-18T12:52:09;5.55;;;2.58;;
81901;SDS011;71369;50.796;3.290;2023-09-18T12:54:38;12.38;;;2.63;;
81901;SDS011;71369;50.796;3.290;2023-09-18T12:57:08;9.50;;;3.40;;
81901;SDS011;71369;50.796;3.290;2023-09-18T12:59:35;15.27;;;3.80;;
81901;SDS011;71369;50.796;3.290;2023-09-18T13:02:03;7.97;;;3.53;;
81901;SDS011;71369;50.796;3.290;2023-09-18T13:04:39;9.02;;;4.15;;
81901;SDS011;71369;50.796;3.290;2023-09-18T13:07:11;7.38;;;3.65;;
81901;SDS011;71369;50.796;3.290;2023-09-18T13:09:40;4.32;;;2.35;;
81901;SDS011;71369;50.796;3.290;2023-09-18T13:12:06;2.95;;;2.30;;
81901;SDS011;71369;50.796;3.290;2023-09-18T13:17:42;10.73;;;3.10;;
81901;SDS011;71369;50.796;3.290;2023-09-18T13:23:17;14.55;;;4.20;;
81901;SDS011;71369;50.796;3.290;2023-09-18T13:25:50;10.10;;;3.65;;
81901;SDS011;71369;50.796;3.290;2023-09-18T13:28:29;7.32;;;2.97;;
81901;SDS011;71369;50.796;3.290;2023-09-18T13:31:17;5.57;;;3.25;;
81901;SDS011;71369;50.796;3.290;2023-09-18T13:33:51;5.57;;;3.00;;
81901;SDS011;71369;50.796;3.290;2023-09-18T13:36:22;3.95;;;2.60;;
81901;SDS011;71369;50.796;3.290;2023-09-18T13:39:02;5.85;;;2.90;;
81901;SDS011;71369;50.796;3.290;2023-09-18T13:41:28;6.30;;;2.63;;
81901;SDS011;71369;50.796;3.290;2023-09-18T13:43:56;6.85;;;2.55;;
81901;SDS011;71369;50.796;3.290;2023-09-18T13:50:03;5.80;;;2.35;;
81901;SDS011;71369;50.796;3.290;2023-09-18T13:52:33;4.53;;;2.42;;
81901;SDS011;71369;50.796;3.290;2023-09-18T13:58:24;3.25;;;2.03;;
81901;SDS011;71369;50.796;3.290;2023-09-18T14:00:55;6.65;;;2.25;;
81901;SDS011;71369;50.796;3.290;2023-09-18T14:03:29;3.60;;;2.28;;
81901;SDS011;71369;50.796;3.290;2023-09-18T14:05:57;4.03;;;2.35;;
81901;SDS011;71369;50.796;3.290;2023-09-18T14:08:24;4.43;;;2.60;;
81901;SDS011;71369;50.796;3.290;2023-09-18T14:10:52;3.38;;;2.28;;
81901;SDS011;71369;50.796;3.290;2023-09-18T14:13:17;3.92;;;2.58;;
81901;SDS011;71369;50.796;3.290;2023-09-18T14:15:43;5.70;;;2.75;;
81901;SDS011;71369;50.796;3.290;2023-09-18T14:18:12;4.43;;;2.30;;
81901;SDS011;71369;50.796;3.290;2023-09-18T14:20:38;4.22;;;2.50;;
81901;SDS011;71369;50.796;3.290;2023-09-18T14:23:04;5.80;;;2.45;;
81901;SDS011;71369;50.796;3.290;2023-09-18T14:25:31;5.15;;;2.10;;
81901;SDS011;71369;50.796;3.290;2023-09-18T14:27:59;7.63;;;2.20;;
81901;SDS011;71369;50.796;3.290;2023-09-18T14:30:25;7.20;;;2.13;;
81901;SDS011;71369;50.796;3.290;2023-09-18T14:32:56;8.00;;;2.42;;
81901;SDS011;71369;50.796;3.290;2023-09-18T14:35:22;2.83;;;1.80;;
81901;SDS011;71369;50.796;3.290;2023-09-18T14:37:49;3.25;;;2.45;;
81901;SDS011;71369;50.796;3.290;2023-09-18T14:40:14;4.97;;;1.90;;
81901;SDS011;71369;50.796;3.290;2023-09-18T14:42:40;7.97;;;1.83;;
81901;SDS011;71369;50.796;3.290;2023-09-18T14:45:06;5.93;;;1.90;;
81901;SDS011;71369;50.796;3.290;2023-09-18T14:47:33;4.20;;;1.90;;
81901;SDS011;71369;50.796;3.290;2023-09-18T14:49:58;5.75;;;1.80;;
81901;SDS011;71369;50.796;3.290;2023-09-18T14:52:27;6.10;;;2.00;;
81901;SDS011;71369;50.796;3.290;2023-09-18T14:54:53;5.30;;;1.80;;
81901;SDS011;71369;50.796;3.290;2023-09-18T14:57:19;4.00;;;1.92;;
81901;SDS011;71369;50.796;3.290;2023-09-18T14:59:45;4.68;;;1.75;;
81901;SDS011;71369;50.796;3.290;2023-09-18T15:02:18;6.88;;;2.03;;
81901;SDS011;71369;50.796;3.290;2023-09-18T15:04:45;7.13;;;2.00;;
81901;SDS011;71369;50.796;3.290;2023-09-18T15:07:11;6.18;;;2.08;;
81901;SDS011;71369;50.796;3.290;2023-09-18T15:09:37;5.65;;;1.95;;
81901;SDS011;71369;50.796;3.290;2023-09-18T15:12:04;6.80;;;2.03;;
81901;SDS011;71369;50.796;3.290;2023-09-18T15:14:33;7.13;;;2.15;;
81901;SDS011;71369;50.796;3.290;2023-09-18T15:17:00;6.53;;;2.13;;
81901;SDS011;71369;50.796;3.290;2023-09-18T15:19:26;7.57;;;2.15;;
81901;SDS011;71369;50.796;3.290;2023-09-18T15:21:52;12.15;;;2.40;;
81901;SDS011;71369;50.796;3.290;2023-09-18T15:24:22;5.93;;;2.45;;
81901;SDS011;71369;50.796;3.290;2023-09-18T15:26:48;6.40;;;2.63;;